createdAt,value
2022-08-02T00:00:44.892Z,99.70
2022-08-02T00:03:13.293Z,97.89
2022-08-02T00:05:41.729Z,93.27
2022-08-02T00:08:21.418Z,96.20
2022-08-02T00:10:49.828Z,94.50
2022-08-02T00:13:18.241Z,98.37
2022-08-02T00:15:48.044Z,97.11
2022-08-02T00:18:16.474Z,95.08
2022-08-02T00:20:45.021Z,96.74
2022-08-02T00:23:13.390Z,96.11
2022-08-02T00:25:54.325Z,97.56
2022-08-02T00:28:27.414Z,96.44
2022-08-02T00:30:58.554Z,97.18
2022-08-02T00:34:28.016Z,96.56
2022-08-02T00:36:15.692Z,94.73
2022-08-02T00:38:44.424Z,98.06
2022-08-02T00:41:14.791Z,98.21
2022-08-02T00:43:43.364Z,100.00
2022-08-02T00:46:13.717Z,99.89
2022-08-02T00:48:43.294Z,100.00
2022-08-02T00:51:12.619Z,99.20
2022-08-02T00:53:41.312Z,99.27
2022-08-02T00:56:09.920Z,98.25
2022-08-02T00:58:38.348Z,100.00
2022-08-02T01:01:07.739Z,98.78
2022-08-02T01:03:37.595Z,98.01
2022-08-02T01:06:13.383Z,99.88
2022-08-02T01:08:41.880Z,98.08
2022-08-02T01:11:12.272Z,99.97
2022-08-02T01:13:40.973Z,100.00
2022-08-02T01:16:15.618Z,100.00
2022-08-02T01:18:49.181Z,100.00
2022-08-02T01:21:37.281Z,100.00
2022-08-02T01:24:22.469Z,100.00
2022-08-02T01:26:56.477Z,100.00
2022-08-02T01:29:30.838Z,100.00
2022-08-02T01:32:07.477Z,100.00
2022-08-02T01:34:41.211Z,99.12
2022-08-02T01:37:15.755Z,98.33
2022-08-02T01:39:45.848Z,96.24
2022-08-02T01:42:15.869Z,99.04
2022-08-02T01:44:48.313Z,100.00
2022-08-02T01:47:20.860Z,100.00
2022-08-02T01:49:56.030Z,100.00
2022-08-02T01:52:28.282Z,100.00
2022-08-02T01:55:01.329Z,100.00
2022-08-02T01:57:35.144Z,100.00
2022-08-02T02:00:13.217Z,100.00
2022-08-02T02:02:45.835Z,100.00
2022-08-02T02:05:17.028Z,100.00
2022-08-02T02:07:55.126Z,100.00
2022-08-02T02:10:27.490Z,100.00
2022-08-02T02:12:57.233Z,100.00
2022-08-02T02:15:28.402Z,100.00
2022-08-02T02:18:12.951Z,100.00
2022-08-02T02:20:43.441Z,100.00
2022-08-02T02:23:13.716Z,100.00
2022-08-02T02:25:46.944Z,100.00
2022-08-02T02:28:23.186Z,100.00
2022-08-02T02:31:01.855Z,100.00
2022-08-02T02:33:34.087Z,100.00
2022-08-02T02:36:04.292Z,100.00
2022-08-02T02:38:34.221Z,100.00
2022-08-02T02:41:04.936Z,100.00
2022-08-02T02:43:35.719Z,100.00
2022-08-02T02:46:07.604Z,100.00
2022-08-02T02:48:36.760Z,100.00
2022-08-02T02:51:08.292Z,100.00
2022-08-02T02:54:30.940Z,100.00
2022-08-02T02:56:32.495Z,100.00
2022-08-02T02:59:01.771Z,100.00
2022-08-02T03:01:55.180Z,100.00
2022-08-02T03:04:21.811Z,100.00
2022-08-02T03:06:51.208Z,100.00
2022-08-02T03:09:19.651Z,100.00
2022-08-02T03:11:48.350Z,100.00
2022-08-02T03:14:17.369Z,100.00
2022-08-02T03:16:49.141Z,100.00
2022-08-02T03:19:18.256Z,100.00
2022-08-02T03:21:48.191Z,100.00
2022-08-02T03:24:28.136Z,100.00
2022-08-02T03:26:56.857Z,100.00
2022-08-02T03:29:25.318Z,100.00
2022-08-02T03:31:55.861Z,100.00
2022-08-02T03:34:24.869Z,100.00
2022-08-02T03:36:57.307Z,100.00
2022-08-02T03:39:27.494Z,100.00
2022-08-02T03:41:56.836Z,100.00
2022-08-02T03:44:26.903Z,100.00
2022-08-02T03:46:57.137Z,100.00
2022-08-02T03:49:25.923Z,100.00
2022-08-02T03:51:55.090Z,100.00
2022-08-02T03:54:23.894Z,100.00
2022-08-02T03:57:03.397Z,100.00
2022-08-02T03:59:41.855Z,100.00
2022-08-02T04:02:13.008Z,100.00
2022-08-02T04:04:41.993Z,100.00
2022-08-02T04:07:10.606Z,100.00
2022-08-02T04:09:39.843Z,100.00
2022-08-02T04:12:08.709Z,100.00
2022-08-02T04:14:37.422Z,100.00
2022-08-02T04:17:09.712Z,100.00
2022-08-02T04:19:44.085Z,100.00
2022-08-02T04:22:18.315Z,100.00
2022-08-02T04:24:51.410Z,100.00
2022-08-02T04:28:15.316Z,100.00
2022-08-02T04:30:12.813Z,100.00
2022-08-02T04:32:41.716Z,100.00
2022-08-02T04:35:20.398Z,100.00
2022-08-02T04:38:08.239Z,100.00
2022-08-02T04:40:38.756Z,100.00
2022-08-02T04:43:07.485Z,100.00
2022-08-02T04:45:37.176Z,100.00
2022-08-02T04:48:06.494Z,100.00
2022-08-02T04:50:36.744Z,100.00
2022-08-02T04:53:05.225Z,100.00
2022-08-02T04:55:33.772Z,100.00
2022-08-02T04:58:04.242Z,100.00
2022-08-02T05:00:38.393Z,100.00
2022-08-02T05:03:06.864Z,100.00
2022-08-02T05:05:36.718Z,100.00
2022-08-02T05:08:05.301Z,100.00
2022-08-02T05:10:33.696Z,100.00
2022-08-02T05:13:02.045Z,100.00
2022-08-02T05:15:33.290Z,100.00
2022-08-02T05:18:01.911Z,100.00
2022-08-02T05:20:30.400Z,100.00
2022-08-02T05:23:00.147Z,100.00
2022-08-02T05:25:28.913Z,100.00
2022-08-02T05:27:57.284Z,100.00
2022-08-02T05:30:25.769Z,100.00
2022-08-02T05:32:54.255Z,100.00
2022-08-02T05:35:25.048Z,100.00
2022-08-02T05:37:54.036Z,100.00
2022-08-02T05:40:25.875Z,100.00
2022-08-02T05:42:54.673Z,100.00
2022-08-02T05:45:23.173Z,100.00
2022-08-02T05:47:51.644Z,100.00
2022-08-02T05:50:20.988Z,100.00
2022-08-02T05:52:53.068Z,100.00
2022-08-02T05:55:30.322Z,100.00
2022-08-02T05:58:07.246Z,100.00
2022-08-02T06:00:36.710Z,96.59
2022-08-02T06:03:17.024Z,95.32
2022-08-02T06:05:52.742Z,97.75
2022-08-02T06:08:22.923Z,92.39
2022-08-02T06:10:53.705Z,89.25
2022-08-02T06:13:22.215Z,88.12
2022-08-02T06:15:53.952Z,85.57
2022-08-02T06:18:28.215Z,84.98
2022-08-02T06:22:30.506Z,80.66
2022-08-02T06:23:57.723Z,78.29
2022-08-02T06:26:29.696Z,76.04
2022-08-02T06:28:59.941Z,74.99
2022-08-02T06:31:28.612Z,70.97
2022-08-02T06:33:57.142Z,65.38
2022-08-02T06:36:33.710Z,65.64
2022-08-02T06:39:09.936Z,61.69
2022-08-02T06:41:43.142Z,60.56
2022-08-02T06:44:45.555Z,62.50
2022-08-02T06:47:11.471Z,61.70
2022-08-02T06:49:51.752Z,58.42
2022-08-02T06:52:28.143Z,60.50
2022-08-02T06:54:58.831Z,53.91
2022-08-02T06:57:28.762Z,55.50
2022-08-02T06:59:58.553Z,54.17
2022-08-02T07:02:27.053Z,52.33
2022-08-02T07:04:56.307Z,57.09
2022-08-02T07:07:25.464Z,50.15
2022-08-02T07:09:56.553Z,50.15
2022-08-02T07:12:33.011Z,50.49
2022-08-02T07:15:02.542Z,50.09
2022-08-02T07:17:31.538Z,45.60
2022-08-02T07:20:00.741Z,47.68
2022-08-02T07:22:29.348Z,46.07
2022-08-02T07:24:59.204Z,44.88
2022-08-02T07:27:28.191Z,42.67
2022-08-02T07:29:58.276Z,42.55
2022-08-02T07:32:28.351Z,43.86
2022-08-02T07:34:57.637Z,41.81
2022-08-02T07:37:53.997Z,42.18
2022-08-02T07:40:20.020Z,44.08
2022-08-02T07:42:52.241Z,41.79
2022-08-02T07:45:23.849Z,40.40
2022-08-02T07:47:53.440Z,41.74
2022-08-02T07:50:22.838Z,38.42
2022-08-02T07:52:53.641Z,38.87
2022-08-02T07:55:33.360Z,38.22
2022-08-02T07:58:10.863Z,39.42
2022-08-02T08:00:43.384Z,40.29
2022-08-02T08:03:11.884Z,37.69
2022-08-02T08:05:40.919Z,40.80
2022-08-02T08:08:15.013Z,38.62
2022-08-02T08:10:45.888Z,37.28
2022-08-02T08:13:14.373Z,37.96
2022-08-02T08:15:51.895Z,36.28
2022-08-02T08:18:21.518Z,37.40
2022-08-02T08:20:49.992Z,37.69
2022-08-02T08:23:18.397Z,35.73
2022-08-02T08:25:46.834Z,36.44
2022-08-02T08:28:15.141Z,36.10
2022-08-02T08:30:44.989Z,37.31
2022-08-02T08:33:13.386Z,36.68
2022-08-02T08:35:41.881Z,34.67
2022-08-02T08:38:10.260Z,33.50
2022-08-02T08:40:39.517Z,35.86
2022-08-02T08:43:07.951Z,34.74
2022-08-02T08:45:36.665Z,34.64
2022-08-02T08:48:13.922Z,34.61
2022-08-02T08:50:49.017Z,33.94
2022-08-02T08:53:20.449Z,34.58
2022-08-02T08:55:50.222Z,34.89
2022-08-02T08:58:18.599Z,35.04
2022-08-02T09:00:48.563Z,36.85
2022-08-02T09:03:20.974Z,33.23
2022-08-02T09:05:49.373Z,33.26
2022-08-02T09:08:19.076Z,31.66
2022-08-02T09:10:49.088Z,31.53
2022-08-02T09:13:37.823Z,30.12
2022-08-02T09:16:12.105Z,31.27
2022-08-02T09:18:46.438Z,31.66
2022-08-02T09:21:17.595Z,30.71
2022-08-02T09:23:47.930Z,29.88
2022-08-02T09:26:18.858Z,30.06
2022-08-02T09:28:50.309Z,30.75
2022-08-02T09:31:20.706Z,29.75
2022-08-02T09:33:56.409Z,30.99
2022-08-02T09:36:25.847Z,30.19
2022-08-02T09:38:58.870Z,30.12
2022-08-02T09:41:28.736Z,27.27
2022-08-02T09:44:05.110Z,26.71
2022-08-02T09:46:39.001Z,25.43
2022-08-02T09:49:11.621Z,25.37
2022-08-02T09:51:41.527Z,26.68
2022-08-02T09:54:12.190Z,26.31
2022-08-02T09:56:45.647Z,25.96
2022-08-02T09:59:15.138Z,26.07
2022-08-02T10:01:48.426Z,25.42
2022-08-02T10:04:24.670Z,24.89
2022-08-02T10:06:55.592Z,25.23
2022-08-02T10:09:24.234Z,23.80
2022-08-02T10:11:53.335Z,26.08
2022-08-02T10:14:23.776Z,24.27
2022-08-02T10:16:52.233Z,24.71
2022-08-02T10:20:00.385Z,25.08
2022-08-02T10:22:13.166Z,23.21
2022-08-02T10:24:48.051Z,24.46
2022-08-02T10:27:20.188Z,24.44
2022-08-02T10:29:54.816Z,24.69
2022-08-02T10:32:27.971Z,24.91
2022-08-02T10:35:18.282Z,24.92
2022-08-02T10:37:51.185Z,24.86
2022-08-02T10:40:27.016Z,25.31
2022-08-02T10:43:00.958Z,24.95
2022-08-02T10:45:30.003Z,25.33
2022-08-02T10:48:03.788Z,24.92
2022-08-02T10:50:56.171Z,25.60
2022-08-02T10:53:31.587Z,26.05
2022-08-02T10:56:01.382Z,25.58
2022-08-02T10:58:32.640Z,23.82
2022-08-02T11:01:06.141Z,24.70
2022-08-02T11:03:43.098Z,27.49
2022-08-02T11:06:24.568Z,24.29
2022-08-02T11:09:31.896Z,27.26
2022-08-02T11:12:04.857Z,23.79
2022-08-02T11:14:35.480Z,22.98
2022-08-02T11:17:15.455Z,22.93
2022-08-02T11:20:21.063Z,23.02
2022-08-02T11:22:52.762Z,23.26
2022-08-02T11:26:02.320Z,23.29
2022-08-02T11:28:25.272Z,23.03
2022-08-02T11:31:03.370Z,24.37
2022-08-02T11:33:33.822Z,23.62
2022-08-02T11:36:04.120Z,23.36
2022-08-02T11:38:34.168Z,23.14
2022-08-02T11:41:06.140Z,22.71
2022-08-02T11:43:39.118Z,22.15
2022-08-02T11:46:15.266Z,22.16
2022-08-02T11:48:45.477Z,22.33
2022-08-02T11:51:16.351Z,22.15
2022-08-02T11:53:53.225Z,21.59
2022-08-02T11:56:30.007Z,22.04
2022-08-02T11:59:06.895Z,23.13
2022-08-02T12:01:45.537Z,22.62
2022-08-02T12:04:22.858Z,22.16
2022-08-02T12:07:00.891Z,21.97
2022-08-02T12:09:33.863Z,22.06
2022-08-02T12:12:05.693Z,22.17
2022-08-02T12:14:43.345Z,21.15
2022-08-02T12:17:28.047Z,21.54
2022-08-02T12:19:56.755Z,21.68
2022-08-02T12:22:27.811Z,22.23
2022-08-02T12:24:59.150Z,23.26
2022-08-02T12:27:36.193Z,21.82
2022-08-02T12:30:08.392Z,21.35
2022-08-02T12:32:37.533Z,21.14
2022-08-02T12:35:12.517Z,21.59
2022-08-02T12:37:42.658Z,22.13
2022-08-02T12:40:27.168Z,22.04
2022-08-02T12:42:58.694Z,22.06
2022-08-02T12:45:40.029Z,21.25
2022-08-02T12:48:10.827Z,22.25
2022-08-02T12:50:39.917Z,22.00
2022-08-02T12:53:10.678Z,22.01
2022-08-02T12:56:01.129Z,22.63
2022-08-02T12:58:32.512Z,23.67
2022-08-02T13:01:02.353Z,23.83
2022-08-02T13:04:10.419Z,23.88
2022-08-02T13:06:40.971Z,23.72
2022-08-02T13:09:17.617Z,24.20
2022-08-02T13:11:47.568Z,24.77
2022-08-02T13:14:16.529Z,25.03
2022-08-02T13:16:46.411Z,24.61
2022-08-02T13:19:15.856Z,22.81
2022-08-02T13:22:02.076Z,23.21
2022-08-02T13:24:40.495Z,24.07
2022-08-02T13:27:25.783Z,23.06
2022-08-02T13:29:55.905Z,23.88
2022-08-02T13:32:25.061Z,23.61
2022-08-02T13:34:53.809Z,24.04
2022-08-02T13:37:22.510Z,23.95
2022-08-02T13:40:18.735Z,24.83
2022-08-02T13:42:40.985Z,24.46
2022-08-02T13:45:12.484Z,24.92
2022-08-02T13:48:04.720Z,25.51
2022-08-02T13:50:33.231Z,25.03
2022-08-02T13:53:01.693Z,25.55
2022-08-02T13:55:30.410Z,27.45
2022-08-02T13:58:00.250Z,27.01
2022-08-02T14:00:35.286Z,26.57
2022-08-02T14:03:05.911Z,27.18
2022-08-02T14:05:39.331Z,27.35
2022-08-02T14:08:18.025Z,28.37
2022-08-02T14:10:47.620Z,28.33
2022-08-02T14:13:17.513Z,27.85
2022-08-02T14:15:46.096Z,28.51
2022-08-02T14:18:15.598Z,28.00
2022-08-02T14:20:45.353Z,28.24
2022-08-02T14:23:13.853Z,27.38
2022-08-02T14:25:42.281Z,26.14
2022-08-02T14:28:10.702Z,26.38
2022-08-02T14:30:40.589Z,26.63
2022-08-02T14:33:09.070Z,27.17
2022-08-02T14:35:37.585Z,26.80
2022-08-02T14:38:06.011Z,25.97
2022-08-02T14:40:34.347Z,28.02
2022-08-02T14:43:03.013Z,26.86
2022-08-02T14:45:40.023Z,26.25
2022-08-02T14:48:12.171Z,27.98
2022-08-02T14:50:40.595Z,28.21
2022-08-02T14:53:11.964Z,29.38
2022-08-02T14:55:42.588Z,30.03
2022-08-02T14:58:11.480Z,29.83
2022-08-02T15:00:41.311Z,30.25
2022-08-02T15:03:11.843Z,29.86
2022-08-02T15:05:40.581Z,30.38
2022-08-02T15:08:08.973Z,31.32
2022-08-02T15:10:37.419Z,32.40
2022-08-02T15:13:05.879Z,31.50
2022-08-02T15:15:43.078Z,32.86
2022-08-02T15:18:14.339Z,32.68
2022-08-02T15:20:56.216Z,32.98
2022-08-02T15:23:37.418Z,33.40
2022-08-02T15:26:07.769Z,32.73
2022-08-02T15:28:36.354Z,34.02
2022-08-02T15:31:04.873Z,34.26
2022-08-02T15:33:34.696Z,34.02
2022-08-02T15:36:03.199Z,34.94
2022-08-02T15:38:31.635Z,35.27
2022-08-02T15:41:00.010Z,34.95
2022-08-02T15:43:28.395Z,35.49
2022-08-02T15:45:56.841Z,36.33
2022-08-02T15:48:25.254Z,38.62
2022-08-02T15:50:55.101Z,38.06
2022-08-02T15:53:23.565Z,39.79
2022-08-02T15:56:05.568Z,40.59
2022-08-02T15:58:40.630Z,42.32
2022-08-02T16:01:13.252Z,41.67
2022-08-02T16:03:41.747Z,42.52
2022-08-02T16:06:12.258Z,41.94
2022-08-02T16:08:53.727Z,40.21
2022-08-02T16:11:24.313Z,40.91
2022-08-02T16:13:54.426Z,40.46
2022-08-02T16:16:24.374Z,41.87
2022-08-02T16:18:53.408Z,42.96
2022-08-02T16:21:24.918Z,39.63
2022-08-02T16:24:00.937Z,40.00
2022-08-02T16:26:32.569Z,39.04
2022-08-02T16:29:01.616Z,39.83
2022-08-02T16:31:30.335Z,36.38
2022-08-02T16:33:58.736Z,37.34
2022-08-02T16:36:29.073Z,38.13
2022-08-02T16:38:58.067Z,38.19
2022-08-02T16:41:51.776Z,36.35
2022-08-02T16:44:15.059Z,37.14
2022-08-02T16:46:45.993Z,36.67
2022-08-02T16:50:06.944Z,36.28
2022-08-02T16:52:04.343Z,37.23
2022-08-02T16:54:32.994Z,36.89
2022-08-02T16:57:03.456Z,38.03
2022-08-02T16:59:42.847Z,38.25
2022-08-02T17:02:18.067Z,37.78
2022-08-02T17:04:47.493Z,37.35
2022-08-02T17:08:08.500Z,37.94
2022-08-02T17:10:09.557Z,37.92
2022-08-02T17:12:39.275Z,37.54
2022-08-02T17:17:57.416Z,37.23
2022-08-02T17:20:25.989Z,37.57
2022-08-02T17:22:56.030Z,39.77
2022-08-02T17:25:32.022Z,39.92
2022-08-02T17:28:01.083Z,39.12
2022-08-02T17:30:29.817Z,41.13
2022-08-02T17:32:59.405Z,41.35
2022-08-02T17:35:52.215Z,42.61
2022-08-02T17:38:26.231Z,45.67
2022-08-02T17:40:55.984Z,44.08
2022-08-02T17:43:29.012Z,45.68
2022-08-02T17:46:00.294Z,46.50
2022-08-02T17:48:54.850Z,45.32
2022-08-02T17:52:15.296Z,47.87
2022-08-02T17:54:14.322Z,49.81
2022-08-02T17:56:47.774Z,47.64
2022-08-02T17:59:20.917Z,49.11
2022-08-02T18:01:53.151Z,48.30
2022-08-02T18:04:27.375Z,49.27
2022-08-02T18:06:58.674Z,50.16
2022-08-02T18:09:28.772Z,50.37
2022-08-02T18:11:58.602Z,50.53
2022-08-02T18:14:27.209Z,50.81
2022-08-02T18:16:55.980Z,48.91
2022-08-02T18:19:42.758Z,49.09
2022-08-02T18:22:13.241Z,50.82
2022-08-02T18:24:44.927Z,52.86
2022-08-02T18:27:14.276Z,53.73
2022-08-02T18:29:42.897Z,56.22
2022-08-02T18:32:16.019Z,56.35
2022-08-02T18:35:04.906Z,55.02
2022-08-02T18:37:43.893Z,56.60
2022-08-02T18:40:15.553Z,57.77
2022-08-02T18:42:44.098Z,57.77
2022-08-02T18:45:19.667Z,56.89
2022-08-02T18:47:50.886Z,58.72
2022-08-02T18:50:20.933Z,59.69
2022-08-02T18:52:49.667Z,57.96
2022-08-02T18:55:59.460Z,57.01
2022-08-02T18:58:19.300Z,57.97
2022-08-02T19:00:51.668Z,55.96
2022-08-02T19:03:20.697Z,54.28
2022-08-02T19:05:53.199Z,58.41
2022-08-02T19:08:25.422Z,59.08
2022-08-02T19:10:57.430Z,60.54
2022-08-02T19:13:26.049Z,58.73
2022-08-02T19:15:54.753Z,56.68
2022-08-02T19:18:26.910Z,59.31
2022-08-02T19:21:05.296Z,62.08
2022-08-02T19:23:34.312Z,60.28
2022-08-02T19:26:04.262Z,59.63
2022-08-02T19:28:33.009Z,61.24
2022-08-02T19:31:02.501Z,61.80
2022-08-02T19:34:06.138Z,62.66
2022-08-02T19:36:19.540Z,63.02
2022-08-02T19:38:49.982Z,62.04
2022-08-02T19:44:23.243Z,61.05
2022-08-02T19:46:57.314Z,60.77
2022-08-02T19:49:39.570Z,60.51
2022-08-02T19:52:21.429Z,59.02
2022-08-02T19:54:55.901Z,59.42
2022-08-02T19:57:26.795Z,58.21
2022-08-02T19:59:57.116Z,59.14
2022-08-02T20:02:26.484Z,57.69
2022-08-02T20:04:55.390Z,59.59
2022-08-02T20:07:55.300Z,63.84
2022-08-02T20:10:14.020Z,65.93
2022-08-02T20:12:58.378Z,66.65
2022-08-02T20:15:55.764Z,68.01
2022-08-02T20:18:15.793Z,70.22
2022-08-02T20:20:55.051Z,69.69
2022-08-02T20:23:32.458Z,69.88
2022-08-02T20:26:02.632Z,71.79
2022-08-02T20:28:32.429Z,70.95
2022-08-02T20:31:09.583Z,71.05
2022-08-02T20:33:55.748Z,71.20
2022-08-02T20:36:25.331Z,68.69
2022-08-02T20:38:54.769Z,67.99
2022-08-02T20:41:23.730Z,69.67
2022-08-02T20:44:15.210Z,68.78
2022-08-02T20:46:45.529Z,68.89
2022-08-02T20:49:21.557Z,66.80
2022-08-02T20:51:53.897Z,65.53
2022-08-02T20:54:22.875Z,65.76
2022-08-02T20:56:51.475Z,64.68
2022-08-02T20:59:22.942Z,65.01
2022-08-02T21:01:56.996Z,64.05
2022-08-02T21:04:26.566Z,63.29
2022-08-02T21:06:55.957Z,61.61
2022-08-02T21:09:52.555Z,62.90
2022-08-02T21:12:13.523Z,66.11
2022-08-02T21:14:43.308Z,66.35
2022-08-02T21:17:11.597Z,68.03
2022-08-02T21:19:47.021Z,69.51
2022-08-02T21:22:15.686Z,68.39
2022-08-02T21:24:45.670Z,68.74
2022-08-02T21:30:06.437Z,74.08
2022-08-02T21:32:35.853Z,74.75
2022-08-02T21:35:04.900Z,76.35
2022-08-02T21:37:45.096Z,78.04
2022-08-02T21:40:14.375Z,73.23
2022-08-02T21:42:44.969Z,69.17
2022-08-02T21:45:17.306Z,67.91
2022-08-02T21:48:04.232Z,67.53
2022-08-02T21:50:32.681Z,64.83
2022-08-02T21:53:01.352Z,62.14
2022-08-02T21:56:00.216Z,64.71
2022-08-02T21:58:20.112Z,64.74
2022-08-02T22:00:49.866Z,64.63
2022-08-02T22:03:23.201Z,65.77
2022-08-02T22:05:52.202Z,65.43
2022-08-02T22:08:22.169Z,66.99
2022-08-02T22:11:04.233Z,68.69
2022-08-02T22:13:47.721Z,73.64
2022-08-02T22:16:18.344Z,77.10
2022-08-02T22:18:50.332Z,77.45
2022-08-02T22:21:22.846Z,76.96
2022-08-02T22:23:52.937Z,76.17
2022-08-02T22:26:21.451Z,77.89
2022-08-02T22:28:59.222Z,80.95
2022-08-02T22:31:41.046Z,77.35
2022-08-02T22:34:26.572Z,75.75
2022-08-02T22:36:58.402Z,76.06
2022-08-02T22:39:28.552Z,79.35
2022-08-02T22:42:05.427Z,82.99
2022-08-02T22:44:35.212Z,82.04
2022-08-02T22:47:14.675Z,85.19
2022-08-02T22:49:53.030Z,83.69
2022-08-02T22:52:24.669Z,83.29
2022-08-02T22:54:53.075Z,82.49
2022-08-02T22:57:30.723Z,79.68
2022-08-02T22:58:37.744Z,36.67
2022-08-02T22:58:52.679Z,62.67
2022-08-02T23:00:00.812Z,78.37
2022-08-02T23:02:30.669Z,84.43
2022-08-02T23:05:01.629Z,85.71
2022-08-02T23:07:36.244Z,86.19
2022-08-02T23:10:08.489Z,81.81
2022-08-02T23:12:37.064Z,78.28
2022-08-02T23:15:06.127Z,79.37
2022-08-02T23:17:53.136Z,84.40
2022-08-02T23:20:21.933Z,79.58
2022-08-02T23:22:50.294Z,77.73
2022-08-02T23:25:18.716Z,78.40
2022-08-02T23:27:50.759Z,76.76
2022-08-02T23:30:19.666Z,82.52
2022-08-02T23:32:49.489Z,82.65
2022-08-02T23:35:17.986Z,79.20
2022-08-02T23:37:59.554Z,81.20
2022-08-02T23:40:39.309Z,81.99
2022-08-02T23:43:14.826Z,83.45
2022-08-02T23:45:45.857Z,85.04
2022-08-02T23:48:15.725Z,81.13
2022-08-02T23:50:44.067Z,82.64
2022-08-02T23:53:12.433Z,83.54
2022-08-02T23:55:40.841Z,83.48
2022-08-02T23:58:09.240Z,82.63
